Flight Track Log - Related Links

Times and Time Zones

All times are in EDT time to prevent confusion due to time zone crossing. See the SWA208 flight status page for this flight to view local times or setup timezone preferences in your user account.

Time Position Orientation Groundspeed Altitude Reporting Facility
EDT Latitude Longitude Course Direction KTS MPH feet Rate Location/Type
Tue 11:10:08 PM 33.6533 -117.8803 195° South 137 158 1,600  Level Los Angeles Center
Tue 11:11:10 PM 33.6150 -117.8922 195° South 140 161 3,000 1,956 Climbing Los Angeles Center
Tue 11:12:23 PM 33.5625 -117.9047 191° South 182 209 6,000 3,618 Climbing Los Angeles Center
Tue 11:13:26 PM 33.5086 -117.9894 233° Southwest 272 313 11,200 4,161 Climbing Los Angeles Center
Tue 11:14:27 PM 33.4756 -118.0933 249° West 316 364 14,600 3,902 Climbing Los Angeles Center
Tue 11:15:29 PM 33.4400 -118.2092 250° West 356 410 19,200 3,968 Climbing Los Angeles Center
Tue 11:16:31 PM 33.4033 -118.3253 249° West 366 421 22,800 3,024 Climbing Los Angeles Center
Tue 11:17:32 PM 33.3953 -118.4294 265° West 391 450 25,400 3,122 Climbing Los Angeles Center
Tue 11:18:34 PM 33.4867 -118.5528 312° West 415 478 29,200 3,145 Climbing Los Angeles Center
Tue 11:19:36 PM 33.5719 -118.6519 316° Northwest 421 484 31,900 2,878 Climbing Los Angeles Center
Tue 11:20:37 PM 33.6725 -118.7706 316° Northwest 418 481 35,100 2,634 Climbing Los Angeles Center
Tue 11:21:39 PM 33.7556 -118.8697 315° West 418 481 37,300 1,403 Climbing Los Angeles Center
Tue 11:22:41 PM 33.8417 -118.9639 318° Northwest 417 480 38,000 341 Climbing Los Angeles Center
Tue 11:23:42 PM 33.9117 -119.0414 317° Northwest 424 488 38,000  Level Los Angeles Center
Tue 11:24:44 PM 34.0158 -119.1567 317° Northwest 423 487 38,000  Level Los Angeles Center
Tue 11:25:46 PM 34.1031 -119.2547 317° Northwest 428 493 38,000  Level Los Angeles Center
Tue 11:26:47 PM 34.1908 -119.3511 318° Northwest 426 490 38,000  Level Los Angeles Center
Tue 11:27:49 PM 34.2778 -119.4494 317° Northwest 428 493 38,000  Level Los Angeles Center
Tue 11:28:51 PM 34.3653 -119.5489 317° Northwest 431 496 38,000  Level Los Angeles Center
Tue 11:29:52 PM 34.4728 -119.6681 318° Northwest 435 501 38,000  Level Los Angeles Center
Tue 11:30:54 PM 34.5606 -119.7672 317° Northwest 433 498 38,000  Level Los Angeles Center
Tue 11:31:56 PM 34.6561 -119.8725 318° Northwest 434 499 38,000  Level Los Angeles Center
Tue 11:32:57 PM 34.7461 -119.9706 318° Northwest 435 501 38,000  Level Los Angeles Center
Tue 11:33:59 PM 34.8336 -120.0714 317° Northwest 434 499 38,000  Level Los Angeles Center
Tue 11:35:01 PM 34.9172 -120.1667 317° Northwest 435 501 38,000  Level Los Angeles Center
Tue 11:36:02 PM 35.0047 -120.2658 317° Northwest 434 499 38,000  Level Los Angeles Center
Tue 11:37:04 PM 35.0911 -120.3647 317° Northwest 431 496 38,000  Level Los Angeles Center
Tue 11:38:06 PM 35.1950 -120.4844 317° Northwest 431 496 38,000  Level Los Angeles Center
Tue 11:39:07 PM 35.2814 -120.5853 316° Northwest 432 497 38,000  Level Los Angeles Center
Tue 11:40:09 PM 35.3742 -120.6800 320° Northwest 438 504 38,000  Level Los Angeles Center
Tue 11:40:40 PM 35.4261 -120.7275 323° Northwest 434 499 38,000  Level Oakland Center
Tue 11:41:41 PM 35.5244 -120.8164 324° Northwest 436 502 38,000  Level Oakland Center
Tue 11:42:42 PM 35.6222 -120.9075 323° Northwest 438 504 38,000  Level Oakland Center
Tue 11:43:43 PM 35.7194 -120.9956 324° Northwest 432 497 38,000  Level Oakland Center
Tue 11:44:44 PM 35.8161 -121.0864 323° Northwest 435 501 38,000  Level Oakland Center
Tue 11:45:45 PM 35.9128 -121.1756 323° Northwest 432 497 38,000  Level Oakland Center
Tue 11:46:46 PM 36.0097 -121.2675 323° Northwest 436 502 38,000  Level Oakland Center
Tue 11:47:47 PM 36.1072 -121.3586 323° Northwest 438 504 38,000 -443 Level Oakland Center
Tue 11:48:48 PM 36.2053 -121.4489 323° Northwest 437 503 37,100 -1,230 Descending Oakland Center
Tue 11:49:49 PM 36.3236 -121.5611 323° Northwest 446 513 35,500 -2,803 Descending Oakland Center
Tue 11:50:50 PM 36.4222 -121.6561 322° Northwest 450 518 31,400 -4,017 Descending Oakland Center
Tue 11:51:50 PM 36.5206 -121.7511 322° Northwest 447 514 27,400 -3,920 Descending Oakland Center
Tue 11:52:05 PM 36.5500 -121.7833 319° Northwest 457 526 26,500 -3,333 Descending Northern Cal TRACON
Tue 11:53:11 PM 36.6500 -121.8833 321° Northwest 431 496 22,900 -3,190 Descending Northern Cal TRACON
Tue 11:54:11 PM 36.7500 -121.9500 332° Northwest 409 471 19,800 -3,158 Descending Northern Cal TRACON
Tue 11:55:05 PM 36.8500 -121.9833 345° North 391 450 16,900 -2,796 Descending Northern Cal TRACON
Tue 11:55:54 PM 36.9094 -122.0069 342° North 384 442 15,000 -2,618 Descending Oakland Center
Tue 11:56:55 PM 37.0103 -122.0331 348° North 371 427 12,100 -2,262 Descending Oakland Center
Tue 11:57:56 PM 37.1211 -122.0608 349° North 339 390 10,400 -1,279 Descending Oakland Center
Tue 11:58:57 PM 37.1969 -122.0817 348° North 285 328 9,500 -1,180 Descending Oakland Center
Tue 11:59:58 PM 37.2692 -122.1014 348° North 268 308 8,000 -1,623 Descending Oakland Center
Wed 12:00:59 AM 37.3414 -122.1203 348° North 267 307 6,200 -1,377 Descending Oakland Center
Wed 12:02:00 AM 37.4131 -122.1403 348° North 265 305 5,200 -639 Descending Oakland Center
Wed 12:03:01 AM 37.4797 -122.1567 349° North 251 289 4,900 -836 Descending Oakland Center
Wed 12:04:02 AM 37.5358 -122.1922 333° Northwest 233 268 3,500 -1,131 Descending Oakland Center
Wed 12:05:03 AM 37.5658 -122.2517 302° West 214 246 2,600 -1,180 Descending Oakland Center
Wed 12:06:04 AM 37.5836 -122.2964 297° West 174 200 1,100 -1,082 Descending Oakland Center
Wed 12:07:05 AM 37.6000 -122.3350 298° West 146 168 400 -689 Descending Oakland Center
Wed 12:10:00 AM 37.6167 -122.3667 322° Northwest  Level FlightAware Approximate

Login

Don't have an account? Register now (free) for customized features, flight alerts, and more!